Portada
METAR-TAF:

METAR-TAF

Aeroports :

Tiruchirappal·li, Índia

latitud: 10-46N, longitud: 078-43E, altitud: 85 m

Observació

L'informe es va fer fa 16 minuts, a les 07:00 UTC
Vent 5 kt del Nord-Est
Temperatura 35°C
Humitat 39%
Pressió 1011 hPa
Visibilitat: 8000 m

METAR: VOTR 300700Z 05005KT 8000 NSC 35/19 Q1011 NOSIG

Hora: 12:46 (07:16 UTC)

Pronòstic

L'informe es va fer fa 2 hores i 16 minuts, a les 05:00 UTC
Pronòstic vàlid del 30 a les 06 UTC al 31 a les 12 UTC
Vent 10 kt del Est
Visibilitat: 6000 m
Escasses núvols a una alçada de 2000 ft
Evolucionant progressivament
l' 30 a les 18 UTC al 30 a les 19 UTC
Visibilitat: 5000 m
boirina
Evolucionant progressivament
l' 31 a les 00 UTC al 31 a les 01 UTC
Vent 5 kt del Nord/Nord-Est
Evolucionant progressivament
l' 31 a les 06 UTC al 31 a les 07 UTC
Vent 10 kt del Est
Visibilitat: 6000 m

TAF: VOTR 300500Z 3006/3112 09010KT 6000 FEW020 BECMG 3018/3019 5000 BR BECMG 3100/3101 02005KT BECMG 3106/3107 09010KT 6000

Observacions i pronòstics meteorològics de més de 4000 aeroports (METAR i TAF).

Les estacions disponibles són els punts grocs i vermells al mapa.

Posi el ratolí al punt desitjat per veure el nom de l'estació.

Feu clic per veure les observacions i els pronòstics meteorològics.

Per canviar el mapa: feu clic els botons verds amb una creu de color negre per apropar; al botó verd amb un guió per allunyar la imatge; o en les fletxes verdes per a mapes adjacents.


METAR-TAF: